createdAt,value
2023-04-26T12:07:34.532Z,11.50
2023-04-26T12:10:14.037Z,11.41
2023-04-26T12:12:45.273Z,11.46
2023-04-26T12:15:13.904Z,11.24
2023-04-26T12:17:52.487Z,11.13
2023-04-26T12:20:19.972Z,10.93
2023-04-26T12:23:02.805Z,10.88
2023-04-26T12:25:30.283Z,10.75
2023-04-26T12:27:56.888Z,10.57
2023-04-26T12:30:23.619Z,10.39
2023-04-26T12:32:50.410Z,10.39
2023-04-26T12:35:16.938Z,10.35
2023-04-26T12:37:43.397Z,10.21
2023-04-26T12:40:10.765Z,10.21
2023-04-26T12:42:37.352Z,10.17
2023-04-26T12:45:03.982Z,10.14
2023-04-26T12:47:31.812Z,10.04
2023-04-26T12:50:00.999Z,10.07
2023-04-26T12:52:28.227Z,10.06
2023-04-26T12:54:54.624Z,10.05
2023-04-26T12:57:21.837Z,10.19
2023-04-26T12:59:48.304Z,10.22
2023-04-26T13:02:14.820Z,10.33
2023-04-26T13:04:41.998Z,10.45
2023-04-26T13:07:08.905Z,10.60
2023-04-26T13:09:35.244Z,10.81
2023-04-26T13:12:01.651Z,10.85
2023-04-26T13:14:28.034Z,11.07
2023-04-26T13:16:54.485Z,11.35
2023-04-26T13:19:20.940Z,11.48
2023-04-26T13:21:47.365Z,11.60
2023-04-26T13:24:13.793Z,11.57
2023-04-26T13:26:40.183Z,11.33
2023-04-26T13:29:06.624Z,11.19
2023-04-26T13:31:33.004Z,11.08
2023-04-26T13:33:59.480Z,10.90
2023-04-26T13:36:26.165Z,10.71
2023-04-26T13:38:52.581Z,10.65
2023-04-26T13:41:19.046Z,10.58
2023-04-26T13:43:45.581Z,10.49
2023-04-26T13:46:12.105Z,10.49
2023-04-26T13:48:38.439Z,10.47
2023-04-26T13:51:06.962Z,10.57
2023-04-26T13:53:33.843Z,10.60
2023-04-26T13:56:00.263Z,10.73
2023-04-26T13:58:26.633Z,10.84
2023-04-26T14:00:53.018Z,10.96
2023-04-26T14:03:19.597Z,11.14
2023-04-26T14:05:46.211Z,11.73
2023-04-26T14:08:12.741Z,12.21
2023-04-26T14:10:40.276Z,12.38
2023-04-26T14:13:06.808Z,12.56
2023-04-26T14:15:33.130Z,12.59
2023-04-26T14:17:59.558Z,12.55
2023-04-26T14:20:26.108Z,12.39
2023-04-26T14:22:52.521Z,12.36
2023-04-26T14:25:19.054Z,12.32
2023-04-26T14:27:45.373Z,12.45
2023-04-26T14:30:12.069Z,12.76
2023-04-26T14:32:38.533Z,12.96
2023-04-26T14:35:05.451Z,13.11
2023-04-26T14:37:31.801Z,12.99
2023-04-26T14:39:58.243Z,12.81
2023-04-26T14:42:24.679Z,12.72
2023-04-26T14:44:51.269Z,12.57
2023-04-26T14:47:17.768Z,12.39
2023-04-26T14:49:44.191Z,12.23
2023-04-26T14:52:10.672Z,12.22
2023-04-26T14:54:38.836Z,12.25
2023-04-26T14:57:05.207Z,12.32
2023-04-26T14:59:31.599Z,12.21
2023-04-26T15:01:58.074Z,12.04
2023-04-26T15:04:24.882Z,11.94
2023-04-26T15:06:51.619Z,11.95
2023-04-26T15:09:18.316Z,11.81
2023-04-26T15:11:44.669Z,11.66
2023-04-26T15:14:11.098Z,11.61
2023-04-26T15:16:37.618Z,11.44
2023-04-26T15:19:04.059Z,11.37
2023-04-26T15:21:31.481Z,11.16
2023-04-26T15:23:57.954Z,11.16
2023-04-26T15:26:24.437Z,11.13
2023-04-26T15:28:51.207Z,11.16
2023-04-26T15:31:17.566Z,11.07
2023-04-26T15:33:44.014Z,11.09
2023-04-26T15:36:10.421Z,11.27
2023-04-26T15:38:36.905Z,11.35
2023-04-26T15:41:03.552Z,11.35
2023-04-26T15:43:29.996Z,11.26
2023-04-26T15:45:56.620Z,10.96
2023-04-26T15:48:23.078Z,10.79
2023-04-26T15:50:50.604Z,10.86
2023-04-26T15:53:17.335Z,11.01
2023-04-26T15:55:43.972Z,11.11
2023-04-26T15:58:10.317Z,11.25
2023-04-26T16:00:37.091Z,11.42
2023-04-26T16:03:03.678Z,11.52
2023-04-26T16:05:31.682Z,11.51
2023-04-26T16:07:59.451Z,11.48
2023-04-26T16:10:25.956Z,11.43
2023-04-26T16:12:52.355Z,11.46
2023-04-26T16:15:18.752Z,11.44
2023-04-26T16:17:45.185Z,11.29
2023-04-26T16:20:11.740Z,11.28
2023-04-26T16:22:38.150Z,11.27
2023-04-26T16:25:06.761Z,11.20
2023-04-26T16:27:33.279Z,11.02
2023-04-26T16:29:59.683Z,11.09
2023-04-26T16:32:26.378Z,11.13
2023-04-26T16:34:53.156Z,11.09
2023-04-26T16:37:19.868Z,10.93
2023-04-26T16:39:46.396Z,10.83
2023-04-26T16:42:12.774Z,10.85
2023-04-26T16:44:40.344Z,10.83
2023-04-26T16:47:06.799Z,10.74
2023-04-26T16:49:33.215Z,10.71
2023-04-26T16:51:59.627Z,10.71
2023-04-26T16:54:26.422Z,10.71
2023-04-26T16:56:53.109Z,10.76
2023-04-26T16:59:19.877Z,10.83
2023-04-26T17:01:47.320Z,10.88
2023-04-26T17:04:14.399Z,10.86
2023-04-26T17:06:41.199Z,10.85
2023-04-26T17:09:08.709Z,10.79
2023-04-26T17:11:37.267Z,10.82
2023-04-26T17:14:04.421Z,10.83
2023-04-26T17:16:31.133Z,10.80
2023-04-26T17:18:58.330Z,10.77
2023-04-26T17:21:24.934Z,10.72
2023-04-26T17:23:51.322Z,10.69
2023-04-26T17:26:18.017Z,10.58
2023-04-26T17:28:44.422Z,10.57
2023-04-26T17:31:10.812Z,10.55
2023-04-26T17:33:37.219Z,10.55
2023-04-26T17:36:03.889Z,10.48
2023-04-26T17:38:30.456Z,10.46
2023-04-26T17:40:56.953Z,10.44
2023-04-26T17:43:23.537Z,10.31
2023-04-26T17:45:49.996Z,10.20
2023-04-26T17:48:17.005Z,10.18
2023-04-26T17:50:43.732Z,10.17
2023-04-26T17:53:10.267Z,10.19
2023-04-26T17:55:37.361Z,10.13
2023-04-26T17:58:03.847Z,10.06
2023-04-26T18:00:30.293Z,10.02
2023-04-26T18:02:57.992Z,9.98
2023-04-26T18:05:25.086Z,9.92
2023-04-26T18:07:51.805Z,9.90
2023-04-26T18:10:18.294Z,9.86
2023-04-26T18:12:44.652Z,9.82
2023-04-26T18:15:11.163Z,9.77
2023-04-26T18:17:37.538Z,9.74
2023-04-26T18:20:04.823Z,9.68
2023-04-26T18:22:31.175Z,9.61
2023-04-26T18:24:57.662Z,9.53
2023-04-26T18:27:24.243Z,9.55
2023-04-26T18:29:50.587Z,9.54
2023-04-26T18:32:17.076Z,9.51
2023-04-26T18:34:44.126Z,9.46
2023-04-26T18:37:10.582Z,9.41
2023-04-26T18:39:36.996Z,9.40
2023-04-26T18:42:03.808Z,9.38
2023-04-26T18:44:30.397Z,9.31
2023-04-26T18:46:56.802Z,9.26
2023-04-26T18:49:24.349Z,9.21
2023-04-26T18:51:50.718Z,9.21
2023-04-26T18:54:17.262Z,9.21
2023-04-26T18:56:43.970Z,9.16
2023-04-26T18:59:10.768Z,9.14
2023-04-26T19:01:37.230Z,9.08
2023-04-26T19:04:03.835Z,9.05
2023-04-26T19:06:31.455Z,9.01
2023-04-26T19:08:58.791Z,8.97
2023-04-26T19:11:25.159Z,8.93
2023-04-26T19:13:51.667Z,8.90
2023-04-26T19:16:18.179Z,8.94
2023-04-26T19:18:44.858Z,8.88
2023-04-26T19:21:11.358Z,8.79
2023-04-26T19:23:37.741Z,8.79
2023-04-26T19:26:08.690Z,8.80
2023-04-26T19:28:35.740Z,8.74
2023-04-26T19:31:02.143Z,8.70
2023-04-26T19:33:28.656Z,8.66
2023-04-26T19:35:56.500Z,8.59
2023-04-26T19:38:23.974Z,8.52
2023-04-26T19:40:53.907Z,8.42
2023-04-26T19:43:20.643Z,8.43
2023-04-26T19:45:47.150Z,8.36
2023-04-26T19:48:13.683Z,8.31
2023-04-26T19:50:41.605Z,8.24
2023-04-26T19:53:13.054Z,8.18
2023-04-26T19:55:41.536Z,8.08
2023-04-26T19:58:08.380Z,8.01
2023-04-26T20:00:39.776Z,7.94
2023-04-26T20:03:06.560Z,7.91
2023-04-26T20:05:33.621Z,7.84
2023-04-26T20:08:00.650Z,7.76
2023-04-26T20:10:30.598Z,7.71
2023-04-26T20:12:56.940Z,7.63
2023-04-26T20:15:23.386Z,7.62
2023-04-26T20:17:49.766Z,7.47
2023-04-26T20:20:16.177Z,7.41
2023-04-26T20:22:42.641Z,7.36
2023-04-26T20:25:09.261Z,7.32
2023-04-26T20:27:35.806Z,7.24
2023-04-26T20:30:02.916Z,7.19
2023-04-26T20:32:29.387Z,7.15
2023-04-26T20:34:56.205Z,7.09
2023-04-26T20:37:22.653Z,7.02
2023-04-26T20:39:49.468Z,6.96
2023-04-26T20:42:16.067Z,6.89
2023-04-26T20:44:42.843Z,6.85
2023-04-26T20:47:09.261Z,6.78
2023-04-26T20:49:35.868Z,6.77
2023-04-26T20:52:02.189Z,6.77
2023-04-26T20:54:28.590Z,6.72
2023-04-26T20:56:54.946Z,6.71
2023-04-26T20:59:21.332Z,6.63
2023-04-26T21:01:47.672Z,6.61
2023-04-26T21:04:14.302Z,6.46
2023-04-26T21:06:40.834Z,6.38
2023-04-26T21:09:07.382Z,6.38
2023-04-26T21:11:33.939Z,6.30
2023-04-26T21:14:00.943Z,6.22
2023-04-26T21:16:27.479Z,6.17
2023-04-26T21:18:53.944Z,6.13
2023-04-26T21:21:20.340Z,6.11
2023-04-26T21:23:46.917Z,5.96
2023-04-26T21:26:13.444Z,5.87
2023-04-26T21:28:39.811Z,5.87
2023-04-26T21:31:07.024Z,5.91
2023-04-26T21:33:34.209Z,5.81
2023-04-26T21:36:00.857Z,5.75
2023-04-26T21:38:27.452Z,5.72
2023-04-26T21:40:53.814Z,5.65
2023-04-26T21:43:24.744Z,5.62
2023-04-26T21:45:52.324Z,5.59
2023-04-26T21:48:18.700Z,5.45
2023-04-26T21:50:48.837Z,5.32
2023-04-26T21:53:15.925Z,5.24
2023-04-26T21:55:42.274Z,5.12
2023-04-26T21:58:08.585Z,5.11
2023-04-26T22:00:35.131Z,5.10
2023-04-26T22:03:01.706Z,5.03
2023-04-26T22:05:29.201Z,4.89
2023-04-26T22:07:55.851Z,4.88
2023-04-26T22:10:22.266Z,4.72
2023-04-26T22:12:48.585Z,4.69
2023-04-26T22:15:15.019Z,4.59
2023-04-26T22:17:41.476Z,4.59
2023-04-26T22:20:08.059Z,4.72
2023-04-26T22:22:34.474Z,4.75
2023-04-26T22:25:00.912Z,4.72
2023-04-26T22:27:27.488Z,4.69
2023-04-26T22:29:53.825Z,4.66
2023-04-26T22:32:20.359Z,4.67
2023-04-26T22:34:46.760Z,4.66
2023-04-26T22:37:20.314Z,4.64
2023-04-26T22:39:47.504Z,4.57
2023-04-26T22:42:13.776Z,4.57
2023-04-26T22:44:40.105Z,4.52
2023-04-26T22:47:06.548Z,4.39
2023-04-26T22:49:32.930Z,4.30
2023-04-26T22:52:07.930Z,4.28
2023-04-26T22:54:38.436Z,4.24
2023-04-26T22:57:05.535Z,4.16
2023-04-26T22:59:34.139Z,4.08
2023-04-26T23:02:01.468Z,4.03
2023-04-26T23:04:28.051Z,3.90
2023-04-26T23:06:54.455Z,3.95
2023-04-26T23:09:20.931Z,4.00
2023-04-26T23:11:47.526Z,3.99
2023-04-26T23:14:15.694Z,3.89
2023-04-26T23:16:42.372Z,3.89
2023-04-26T23:19:09.539Z,3.88
2023-04-26T23:21:35.998Z,3.71
2023-04-26T23:24:02.381Z,3.33
2023-04-26T23:26:28.795Z,3.34
2023-04-26T23:28:55.125Z,3.53
2023-04-26T23:31:21.603Z,3.62
2023-04-26T23:33:48.182Z,3.68
2023-04-26T23:36:14.620Z,3.67
2023-04-26T23:38:41.273Z,3.60
2023-04-26T23:41:07.714Z,3.62
2023-04-26T23:43:34.102Z,3.53
2023-04-26T23:46:00.573Z,3.47
2023-04-26T23:48:27.319Z,3.35
2023-04-26T23:50:53.758Z,3.10
2023-04-26T23:53:20.138Z,3.19
2023-04-26T23:55:46.789Z,3.24
2023-04-26T23:58:13.125Z,3.26
